Wetterdaten: August 2009
Datum Temp Feuchte Luftdruck Regen Wind Richtung Sonnenschein UV Solar Windben
01.08.2009 17,6 C 75 % 1012,9 hPa 0,0 l/m 4,4 km/h SO 7,08 h 2,5 UV-I 279 W/m 8,0 km/h
02.08.2009 17,0 C 88 % 1010,5 hPa 3,4 l/m 4,5 km/h S 1,25 h 1,7 UV-I 137 W/m 14,1 km/h
03.08.2009 15,6 C 81 % 1016,8 hPa 0,0 l/m 2,5 km/h NW 5,25 h 2,8 UV-I 318 W/m 5,6 km/h
04.08.2009 15,0 C 80 % 1021,2 hPa 0,0 l/m 0,3 km/h N-NW 10,75 h 3,0 UV-I 410 W/m 1,6 km/h
05.08.2009 18,2 C 68 % 1021,3 hPa 0,0 l/m 1,4 km/h SO 12,42 h 3,5 UV-I 447 W/m 2,8 km/h
06.08.2009 20,7 C 68 % 1019,7 hPa 0,0 l/m 2,6 km/h SO 12,25 h 3,5 UV-I 441 W/m 6,4 km/h
07.08.2009 21,0 C 70 % 1016,8 hPa 0,0 l/m 2,6 km/h SO 9,75 h 3,1 UV-I 382 W/m 8,4 km/h
08.08.2009 18,7 C 89 % 1017,9 hPa 0,0 l/m 3,8 km/h N-NW 1,67 h 2,2 UV-I 197 W/m 8,8 km/h
09.08.2009 19,2 C 88 % 1016,5 hPa 0,0 l/m 2,5 km/h N-NO 2,50 h 2,0 UV-I 206 W/m 5,2 km/h
10.08.2009 18,9 C 80 % 1014,6 hPa 0,0 l/m 4,1 km/h N-NW 4,08 h 2,3 UV-I 261 W/m 9,2 km/h
11.08.2009 17,3 C 90 % 1016,7 hPa 2,8 l/m 4,8 km/h S 2,50 h 1,5 UV-I 143 W/m 10,1 km/h
12.08.2009 15,8 C 90 % 1016,1 hPa 4,2 l/m 3,7 km/h W 1,17 h 1,4 UV-I 127 W/m 12,5 km/h
13.08.2009 15,4 C 87 % 1015,5 hPa 0,0 l/m 1,7 km/h NW 4,08 h 1,9 UV-I 224 W/m 4,4 km/h
14.08.2009 14,4 C 81 % 1018,2 hPa 0,0 l/m 2,3 km/h NW 10,83 h 3,0 UV-I 407 W/m 5,2 km/h
15.08.2009 18,2 C 67 % 1015,6 hPa 0,0 l/m 3,0 km/h S 12,00 h 3,1 UV-I 424 W/m 6,8 km/h
16.08.2009 20,3 C 73 % 1013,7 hPa 0,0 l/m 4,4 km/h S 11,50 h 3,0 UV-I 413 W/m 9,2 km/h
17.08.2009 18,7 C 78 % 1013,7 hPa 0,0 l/m 7,3 km/h N-NW 8,83 h 2,7 UV-I 366 W/m 13,3 km/h
18.08.2009 15,8 C 77 % 1020,6 hPa 0,0 l/m 2,9 km/h NW 9,83 h 2,7 UV-I 377 W/m 6,8 km/h
19.08.2009 19,7 C 71 % 1020,2 hPa 0,0 l/m 3,3 km/h S-SO 12,00 h 3,1 UV-I 421 W/m 8,0 km/h
20.08.2009 26,4 C 56 % 1015,4 hPa 0,0 l/m 8,1 km/h S-SO 10,08 h 2,8 UV-I 380 W/m 17,7 km/h
21.08.2009 14,8 C 88 % 1019,8 hPa 2,0 l/m 3,1 km/h S-SW 3,17 h 1,6 UV-I 188 W/m 7,6 km/h
22.08.2009 13,9 C 78 % 1023,9 hPa 0,0 l/m 1,1 km/h W-NW 9,67 h 2,7 UV-I 382 W/m 2,4 km/h
23.08.2009 15,0 C 71 % 1020,8 hPa 0,0 l/m 2,3 km/h SO 10,50 h 2,9 UV-I 388 W/m 6,4 km/h
24.08.2009 17,7 C 72 % 1009,9 hPa 0,0 l/m 5,6 km/h SO 11,42 h 3,1 UV-I 419 W/m 10,9 km/h
25.08.2009 18,5 C 86 % 1010,7 hPa 7,2 l/m 2,7 km/h S 1,50 h 2,0 UV-I 152 W/m 6,9 km/h
26.08.2009 15,8 C 81 % 1015,4 hPa 3,0 l/m 1,1 km/h S 9,50 h 3,0 UV-I 385 W/m 4,0 km/h
27.08.2009 18,9 C 80 % 1014,5 hPa 0,0 l/m 3,4 km/h S-SO 6,17 h 2,6 UV-I 315 W/m 5,6 km/h
28.08.2009 16,4 C 70 % 1011,6 hPa 0,0 l/m 6,7 km/h S 3,50 h 2,1 UV-I 237 W/m 13,3 km/h
29.08.2009 12,1 C 83 % 1018,5 hPa 1,4 l/m 2,5 km/h S 3,08 h 1,7 UV-I 208 W/m 7,2 km/h
30.08.2009 11,0 C 83 % 1020,3 hPa 0,0 l/m 4,3 km/h S 1,25 h 1,2 UV-I 131 W/m 7,6 km/h
31.08.2009 15,2 C 76 % 1016,7 hPa 0,0 l/m 2,1 km/h S-SO 11,17 h 3,1 UV-I 391 W/m 4,4 km/h
Min-Datum 30.08.09 20.08.09 02.08.09 7 Tage 01.08.09 - - - - 01.08.09
Min-Zeit 06:55 17:00 09:20 - 01:40 - - - - 01:50
Minimum 5,9 C 31 % 1006,5 hPa - 0,0 km/h - - - - 0,0 km/h
Max-Datum 20.08.09 26.08.09 23.08.09 25.08.09 20.08.09 - 05.08.09 01.08.09 03.08.09 28.08.09
Max-Zeit 16:05 07:35 01:10 18:20 22:50 - 19:35 13:30 12:40 15:40
Maximum 33,4 C 100 % 1025,4 hPa 7,2 l/m 22,6 km/h
S-SO
- 12,33 h 6,8 UV-I 981 W/m 46,7 km/h
S
Durchschnitt 17,2 C 78 % 1016,6 hPa #24,0 l/m 3,4 km/h S #220:45 h 2,5 UV-I 308 W/m 7,8 km/h

Durchschnitt Minimum Temp.11,9 C
Durchschnitt Maximum Temp.23,6 C